sensor_id;sensor_type;location;lat;lon;timestamp;P1;durP1;ratioP1;P2;durP2;ratioP2
29838;SDS011;18669;53.356;-1.464;2023-01-16T00:03:35;16.75;;;7.78;;
29838;SDS011;18669;53.356;-1.464;2023-01-16T00:06:02;13.02;;;8.35;;
29838;SDS011;18669;53.356;-1.464;2023-01-16T00:08:28;15.95;;;7.95;;
29838;SDS011;18669;53.356;-1.464;2023-01-16T00:10:54;11.73;;;7.07;;
29838;SDS011;18669;53.356;-1.464;2023-01-16T00:13:20;11.13;;;6.95;;
29838;SDS011;18669;53.356;-1.464;2023-01-16T00:15:48;12.05;;;8.00;;
29838;SDS011;18669;53.356;-1.464;2023-01-16T00:18:15;13.63;;;8.35;;
29838;SDS011;18669;53.356;-1.464;2023-01-16T00:20:43;16.60;;;8.15;;
29838;SDS011;18669;53.356;-1.464;2023-01-16T00:23:11;14.68;;;8.52;;
29838;SDS011;18669;53.356;-1.464;2023-01-16T00:25:41;10.02;;;7.03;;
29838;SDS011;18669;53.356;-1.464;2023-01-16T00:28:08;12.18;;;7.70;;
29838;SDS011;18669;53.356;-1.464;2023-01-16T00:30:35;14.45;;;7.47;;
29838;SDS011;18669;53.356;-1.464;2023-01-16T00:33:01;10.68;;;7.20;;
29838;SDS011;18669;53.356;-1.464;2023-01-16T00:35:28;11.88;;;7.55;;
29838;SDS011;18669;53.356;-1.464;2023-01-16T00:37:54;16.55;;;8.85;;
29838;SDS011;18669;53.356;-1.464;2023-01-16T00:40:21;13.88;;;8.05;;
29838;SDS011;18669;53.356;-1.464;2023-01-16T00:42:49;12.25;;;7.60;;
29838;SDS011;18669;53.356;-1.464;2023-01-16T00:45:16;14.45;;;8.40;;
29838;SDS011;18669;53.356;-1.464;2023-01-16T00:47:42;14.35;;;8.15;;
29838;SDS011;18669;53.356;-1.464;2023-01-16T00:50:11;16.55;;;8.75;;
29838;SDS011;18669;53.356;-1.464;2023-01-16T00:52:37;10.82;;;7.50;;
29838;SDS011;18669;53.356;-1.464;2023-01-16T00:55:03;13.80;;;7.82;;
29838;SDS011;18669;53.356;-1.464;2023-01-16T00:57:33;14.95;;;8.20;;
29838;SDS011;18669;53.356;-1.464;2023-01-16T01:00:00;12.68;;;7.93;;
29838;SDS011;18669;53.356;-1.464;2023-01-16T01:02:28;12.35;;;8.15;;
29838;SDS011;18669;53.356;-1.464;2023-01-16T01:05:04;15.73;;;8.30;;
29838;SDS011;18669;53.356;-1.464;2023-01-16T01:07:34;15.68;;;8.88;;
29838;SDS011;18669;53.356;-1.464;2023-01-16T01:10:07;11.32;;;7.90;;
29838;SDS011;18669;53.356;-1.464;2023-01-16T01:12:43;17.05;;;8.70;;
29838;SDS011;18669;53.356;-1.464;2023-01-16T01:15:09;13.15;;;8.10;;
29838;SDS011;18669;53.356;-1.464;2023-01-16T01:17:35;12.73;;;8.40;;
29838;SDS011;18669;53.356;-1.464;2023-01-16T01:20:02;18.38;;;8.93;;
29838;SDS011;18669;53.356;-1.464;2023-01-16T01:22:29;14.00;;;7.97;;
29838;SDS011;18669;53.356;-1.464;2023-01-16T01:24:55;15.07;;;8.30;;
29838;SDS011;18669;53.356;-1.464;2023-01-16T01:27:21;13.80;;;8.32;;
29838;SDS011;18669;53.356;-1.464;2023-01-16T01:29:47;12.85;;;8.60;;
29838;SDS011;18669;53.356;-1.464;2023-01-16T01:32:14;19.35;;;8.50;;
29838;SDS011;18669;53.356;-1.464;2023-01-16T01:34:40;12.50;;;8.43;;
29838;SDS011;18669;53.356;-1.464;2023-01-16T01:37:06;15.80;;;8.70;;
29838;SDS011;18669;53.356;-1.464;2023-01-16T01:39:33;13.52;;;8.65;;
29838;SDS011;18669;53.356;-1.464;2023-01-16T01:41:59;14.77;;;7.95;;
29838;SDS011;18669;53.356;-1.464;2023-01-16T01:44:46;13.05;;;8.05;;
29838;SDS011;18669;53.356;-1.464;2023-01-16T01:47:23;13.73;;;8.40;;
29838;SDS011;18669;53.356;-1.464;2023-01-16T01:49:54;16.38;;;8.52;;
29838;SDS011;18669;53.356;-1.464;2023-01-16T01:52:22;13.90;;;8.23;;
29838;SDS011;18669;53.356;-1.464;2023-01-16T01:54:54;14.85;;;8.00;;
29838;SDS011;18669;53.356;-1.464;2023-01-16T01:57:34;14.10;;;8.60;;
29838;SDS011;18669;53.356;-1.464;2023-01-16T02:00:13;14.35;;;8.48;;
29838;SDS011;18669;53.356;-1.464;2023-01-16T02:05:10;13.32;;;7.75;;
29838;SDS011;18669;53.356;-1.464;2023-01-16T02:07:41;19.98;;;8.68;;
29838;SDS011;18669;53.356;-1.464;2023-01-16T02:10:18;15.20;;;8.30;;
29838;SDS011;18669;53.356;-1.464;2023-01-16T02:12:48;12.30;;;8.27;;
29838;SDS011;18669;53.356;-1.464;2023-01-16T02:15:14;16.02;;;8.10;;
29838;SDS011;18669;53.356;-1.464;2023-01-16T02:17:44;14.52;;;8.60;;
29838;SDS011;18669;53.356;-1.464;2023-01-16T02:20:29;13.00;;;8.20;;
29838;SDS011;18669;53.356;-1.464;2023-01-16T02:23:20;13.45;;;8.23;;
29838;SDS011;18669;53.356;-1.464;2023-01-16T02:31:40;11.25;;;7.45;;
29838;SDS011;18669;53.356;-1.464;2023-01-16T02:34:18;13.57;;;8.32;;
29838;SDS011;18669;53.356;-1.464;2023-01-16T02:47:58;14.35;;;8.02;;
29838;SDS011;18669;53.356;-1.464;2023-01-16T02:53:18;11.98;;;8.02;;
29838;SDS011;18669;53.356;-1.464;2023-01-16T02:58:20;17.08;;;9.75;;
29838;SDS011;18669;53.356;-1.464;2023-01-16T03:00:51;15.40;;;9.40;;
29838;SDS011;18669;53.356;-1.464;2023-01-16T03:03:26;15.65;;;10.43;;
29838;SDS011;18669;53.356;-1.464;2023-01-16T03:06:12;12.98;;;8.27;;
29838;SDS011;18669;53.356;-1.464;2023-01-16T03:08:45;13.63;;;8.90;;
29838;SDS011;18669;53.356;-1.464;2023-01-16T03:11:41;15.38;;;8.93;;
29838;SDS011;18669;53.356;-1.464;2023-01-16T03:14:19;12.30;;;7.82;;
29838;SDS011;18669;53.356;-1.464;2023-01-16T03:19:46;12.65;;;8.45;;
29838;SDS011;18669;53.356;-1.464;2023-01-16T03:22:44;17.40;;;8.98;;
29838;SDS011;18669;53.356;-1.464;2023-01-16T03:33:47;15.50;;;8.93;;
29838;SDS011;18669;53.356;-1.464;2023-01-16T03:36:35;14.00;;;9.05;;
29838;SDS011;18669;53.356;-1.464;2023-01-16T03:39:08;14.50;;;10.02;;
29838;SDS011;18669;53.356;-1.464;2023-01-16T03:41:38;16.95;;;10.18;;
29838;SDS011;18669;53.356;-1.464;2023-01-16T03:44:11;19.13;;;9.82;;
29838;SDS011;18669;53.356;-1.464;2023-01-16T03:46:46;19.30;;;9.55;;
29838;SDS011;18669;53.356;-1.464;2023-01-16T03:49:17;16.30;;;9.55;;
29838;SDS011;18669;53.356;-1.464;2023-01-16T03:51:47;19.48;;;10.18;;
29838;SDS011;18669;53.356;-1.464;2023-01-16T03:59:56;17.92;;;9.60;;
29838;SDS011;18669;53.356;-1.464;2023-01-16T04:02:30;17.88;;;9.20;;
29838;SDS011;18669;53.356;-1.464;2023-01-16T04:07:39;20.08;;;10.57;;
29838;SDS011;18669;53.356;-1.464;2023-01-16T04:10:10;15.63;;;10.00;;
29838;SDS011;18669;53.356;-1.464;2023-01-16T04:13:02;16.17;;;10.30;;
29838;SDS011;18669;53.356;-1.464;2023-01-16T04:15:32;17.67;;;10.85;;
29838;SDS011;18669;53.356;-1.464;2023-01-16T04:18:02;22.77;;;10.50;;
29838;SDS011;18669;53.356;-1.464;2023-01-16T04:20:28;15.82;;;9.63;;
29838;SDS011;18669;53.356;-1.464;2023-01-16T04:22:55;15.10;;;10.88;;
29838;SDS011;18669;53.356;-1.464;2023-01-16T04:25:21;18.45;;;11.23;;
29838;SDS011;18669;53.356;-1.464;2023-01-16T04:27:48;21.05;;;11.00;;
29838;SDS011;18669;53.356;-1.464;2023-01-16T04:30:14;20.85;;;11.15;;
29838;SDS011;18669;53.356;-1.464;2023-01-16T04:32:41;19.58;;;11.48;;
29838;SDS011;18669;53.356;-1.464;2023-01-16T04:35:08;21.85;;;11.63;;
29838;SDS011;18669;53.356;-1.464;2023-01-16T04:37:34;21.05;;;12.00;;
29838;SDS011;18669;53.356;-1.464;2023-01-16T04:42:27;21.42;;;10.55;;
29838;SDS011;18669;53.356;-1.464;2023-01-16T04:47:19;17.92;;;10.60;;
29838;SDS011;18669;53.356;-1.464;2023-01-16T04:49:46;21.20;;;11.05;;
29838;SDS011;18669;53.356;-1.464;2023-01-16T04:52:12;19.05;;;11.25;;
29838;SDS011;18669;53.356;-1.464;2023-01-16T04:54:38;17.85;;;11.68;;
29838;SDS011;18669;53.356;-1.464;2023-01-16T04:57:04;22.60;;;13.02;;
29838;SDS011;18669;53.356;-1.464;2023-01-16T04:59:30;36.05;;;17.55;;
29838;SDS011;18669;53.356;-1.464;2023-01-16T05:01:57;38.60;;;18.30;;
29838;SDS011;18669;53.356;-1.464;2023-01-16T05:04:23;38.17;;;18.20;;
29838;SDS011;18669;53.356;-1.464;2023-01-16T05:06:49;45.92;;;19.48;;
29838;SDS011;18669;53.356;-1.464;2023-01-16T05:09:15;39.72;;;19.15;;
29838;SDS011;18669;53.356;-1.464;2023-01-16T05:11:41;38.05;;;19.35;;
29838;SDS011;18669;53.356;-1.464;2023-01-16T05:14:08;42.08;;;19.25;;
29838;SDS011;18669;53.356;-1.464;2023-01-16T05:16:34;41.17;;;19.20;;
29838;SDS011;18669;53.356;-1.464;2023-01-16T05:19:01;40.97;;;19.50;;
29838;SDS011;18669;53.356;-1.464;2023-01-16T05:21:28;42.75;;;19.50;;
29838;SDS011;18669;53.356;-1.464;2023-01-16T05:23:54;44.20;;;18.52;;
29838;SDS011;18669;53.356;-1.464;2023-01-16T05:26:20;46.70;;;19.10;;
29838;SDS011;18669;53.356;-1.464;2023-01-16T05:28:47;40.25;;;18.98;;
29838;SDS011;18669;53.356;-1.464;2023-01-16T05:31:13;38.38;;;18.65;;
29838;SDS011;18669;53.356;-1.464;2023-01-16T05:33:40;41.78;;;17.13;;
29838;SDS011;18669;53.356;-1.464;2023-01-16T05:36:06;36.35;;;16.23;;
29838;SDS011;18669;53.356;-1.464;2023-01-16T05:38:32;32.22;;;15.15;;
29838;SDS011;18669;53.356;-1.464;2023-01-16T05:40:58;28.73;;;14.88;;
29838;SDS011;18669;53.356;-1.464;2023-01-16T05:43:25;26.45;;;14.55;;
29838;SDS011;18669;53.356;-1.464;2023-01-16T05:45:51;28.95;;;13.93;;
29838;SDS011;18669;53.356;-1.464;2023-01-16T05:48:18;27.48;;;14.13;;
29838;SDS011;18669;53.356;-1.464;2023-01-16T05:50:44;23.50;;;13.00;;
29838;SDS011;18669;53.356;-1.464;2023-01-16T05:53:10;21.20;;;12.52;;
29838;SDS011;18669;53.356;-1.464;2023-01-16T05:55:44;18.67;;;11.18;;
29838;SDS011;18669;53.356;-1.464;2023-01-16T05:58:12;17.63;;;9.40;;
29838;SDS011;18669;53.356;-1.464;2023-01-16T06:00:40;18.02;;;9.90;;
29838;SDS011;18669;53.356;-1.464;2023-01-16T06:03:07;20.70;;;8.93;;
29838;SDS011;18669;53.356;-1.464;2023-01-16T06:05:34;19.40;;;9.13;;
29838;SDS011;18669;53.356;-1.464;2023-01-16T06:08:00;20.33;;;8.30;;
29838;SDS011;18669;53.356;-1.464;2023-01-16T06:10:27;15.75;;;8.00;;
29838;SDS011;18669;53.356;-1.464;2023-01-16T06:12:53;17.77;;;9.10;;
29838;SDS011;18669;53.356;-1.464;2023-01-16T06:15:19;24.17;;;8.70;;
29838;SDS011;18669;53.356;-1.464;2023-01-16T06:20:11;17.20;;;8.10;;
29838;SDS011;18669;53.356;-1.464;2023-01-16T06:22:37;19.30;;;8.05;;
29838;SDS011;18669;53.356;-1.464;2023-01-16T06:25:04;21.55;;;10.57;;
29838;SDS011;18669;53.356;-1.464;2023-01-16T06:27:31;20.88;;;9.40;;
29838;SDS011;18669;53.356;-1.464;2023-01-16T06:29:57;20.45;;;10.60;;
29838;SDS011;18669;53.356;-1.464;2023-01-16T06:32:24;16.67;;;8.55;;
29838;SDS011;18669;53.356;-1.464;2023-01-16T06:34:50;15.70;;;9.10;;
29838;SDS011;18669;53.356;-1.464;2023-01-16T06:37:16;17.20;;;9.02;;
29838;SDS011;18669;53.356;-1.464;2023-01-16T06:39:43;22.40;;;8.77;;
29838;SDS011;18669;53.356;-1.464;2023-01-16T06:42:09;18.80;;;9.07;;
29838;SDS011;18669;53.356;-1.464;2023-01-16T06:44:35;18.02;;;9.25;;
29838;SDS011;18669;53.356;-1.464;2023-01-16T06:47:01;18.92;;;9.30;;
29838;SDS011;18669;53.356;-1.464;2023-01-16T06:49:28;16.17;;;8.98;;
29838;SDS011;18669;53.356;-1.464;2023-01-16T06:54:20;19.98;;;8.25;;
29838;SDS011;18669;53.356;-1.464;2023-01-16T06:56:46;17.02;;;8.93;;
29838;SDS011;18669;53.356;-1.464;2023-01-16T06:59:12;18.08;;;8.57;;
29838;SDS011;18669;53.356;-1.464;2023-01-16T07:01:38;17.67;;;9.27;;
29838;SDS011;18669;53.356;-1.464;2023-01-16T07:04:04;24.23;;;8.68;;
29838;SDS011;18669;53.356;-1.464;2023-01-16T07:06:32;17.55;;;8.68;;
29838;SDS011;18669;53.356;-1.464;2023-01-16T07:08:58;17.90;;;8.63;;
29838;SDS011;18669;53.356;-1.464;2023-01-16T07:11:24;21.85;;;9.18;;
29838;SDS011;18669;53.356;-1.464;2023-01-16T07:13:51;16.70;;;8.43;;
29838;SDS011;18669;53.356;-1.464;2023-01-16T07:16:37;16.05;;;8.63;;
29838;SDS011;18669;53.356;-1.464;2023-01-16T07:19:22;18.40;;;8.10;;
29838;SDS011;18669;53.356;-1.464;2023-01-16T07:22:07;16.88;;;6.65;;
29838;SDS011;18669;53.356;-1.464;2023-01-16T07:24:56;12.98;;;6.18;;
29838;SDS011;18669;53.356;-1.464;2023-01-16T07:27:22;10.50;;;5.63;;
29838;SDS011;18669;53.356;-1.464;2023-01-16T07:29:49;11.10;;;6.25;;
29838;SDS011;18669;53.356;-1.464;2023-01-16T07:32:15;14.63;;;5.03;;
29838;SDS011;18669;53.356;-1.464;2023-01-16T07:34:42;8.57;;;4.60;;
29838;SDS011;18669;53.356;-1.464;2023-01-16T07:37:08;9.98;;;4.80;;
29838;SDS011;18669;53.356;-1.464;2023-01-16T07:39:36;8.60;;;4.22;;
29838;SDS011;18669;53.356;-1.464;2023-01-16T07:42:03;14.65;;;4.60;;
29838;SDS011;18669;53.356;-1.464;2023-01-16T07:44:31;13.27;;;4.57;;
29838;SDS011;18669;53.356;-1.464;2023-01-16T07:46:57;14.95;;;4.00;;
29838;SDS011;18669;53.356;-1.464;2023-01-16T07:49:23;8.00;;;4.47;;
29838;SDS011;18669;53.356;-1.464;2023-01-16T07:51:49;11.70;;;4.80;;
29838;SDS011;18669;53.356;-1.464;2023-01-16T07:54:15;11.45;;;5.40;;
29838;SDS011;18669;53.356;-1.464;2023-01-16T07:56:41;12.32;;;5.22;;
29838;SDS011;18669;53.356;-1.464;2023-01-16T08:01:33;13.60;;;4.68;;
29838;SDS011;18669;53.356;-1.464;2023-01-16T08:06:26;14.82;;;4.18;;
29838;SDS011;18669;53.356;-1.464;2023-01-16T08:08:52;12.20;;;4.60;;
29838;SDS011;18669;53.356;-1.464;2023-01-16T08:11:18;16.27;;;4.35;;
29838;SDS011;18669;53.356;-1.464;2023-01-16T08:14:04;15.52;;;4.82;;
29838;SDS011;18669;53.356;-1.464;2023-01-16T08:16:32;9.38;;;4.80;;
29838;SDS011;18669;53.356;-1.464;2023-01-16T08:18:59;12.20;;;5.78;;
29838;SDS011;18669;53.356;-1.464;2023-01-16T08:21:25;11.60;;;5.80;;
29838;SDS011;18669;53.356;-1.464;2023-01-16T08:23:52;15.75;;;5.45;;
29838;SDS011;18669;53.356;-1.464;2023-01-16T08:26:18;13.02;;;5.18;;
29838;SDS011;18669;53.356;-1.464;2023-01-16T08:28:44;14.75;;;5.78;;
29838;SDS011;18669;53.356;-1.464;2023-01-16T08:31:11;9.63;;;5.00;;
29838;SDS011;18669;53.356;-1.464;2023-01-16T08:33:39;15.32;;;4.30;;
29838;SDS011;18669;53.356;-1.464;2023-01-16T08:36:08;10.20;;;5.13;;
29838;SDS011;18669;53.356;-1.464;2023-01-16T08:38:35;8.95;;;4.72;;
29838;SDS011;18669;53.356;-1.464;2023-01-16T08:41:02;11.52;;;4.30;;
29838;SDS011;18669;53.356;-1.464;2023-01-16T08:43:28;10.32;;;4.60;;
29838;SDS011;18669;53.356;-1.464;2023-01-16T08:46:20;10.65;;;4.55;;
29838;SDS011;18669;53.356;-1.464;2023-01-16T08:49:09;7.68;;;4.13;;
29838;SDS011;18669;53.356;-1.464;2023-01-16T08:51:56;8.52;;;4.07;;
29838;SDS011;18669;53.356;-1.464;2023-01-16T08:54:23;8.82;;;3.83;;
29838;SDS011;18669;53.356;-1.464;2023-01-16T08:59:15;9.43;;;3.42;;
29838;SDS011;18669;53.356;-1.464;2023-01-16T09:01:41;6.97;;;3.38;;
29838;SDS011;18669;53.356;-1.464;2023-01-16T09:04:07;9.43;;;3.63;;
29838;SDS011;18669;53.356;-1.464;2023-01-16T09:06:34;7.82;;;3.88;;
29838;SDS011;18669;53.356;-1.464;2023-01-16T09:09:03;9.15;;;3.15;;
29838;SDS011;18669;53.356;-1.464;2023-01-16T09:11:33;6.50;;;3.03;;
29838;SDS011;18669;53.356;-1.464;2023-01-16T09:14:19;5.75;;;2.90;;
29838;SDS011;18669;53.356;-1.464;2023-01-16T09:19:11;11.25;;;3.67;;
29838;SDS011;18669;53.356;-1.464;2023-01-16T09:21:37;8.88;;;2.92;;
29838;SDS011;18669;53.356;-1.464;2023-01-16T09:24:03;6.32;;;2.67;;
29838;SDS011;18669;53.356;-1.464;2023-01-16T09:26:30;6.90;;;3.13;;
29838;SDS011;18669;53.356;-1.464;2023-01-16T09:28:56;4.60;;;2.78;;
29838;SDS011;18669;53.356;-1.464;2023-01-16T09:31:23;10.52;;;3.03;;
29838;SDS011;18669;53.356;-1.464;2023-01-16T09:33:49;10.60;;;3.00;;
29838;SDS011;18669;53.356;-1.464;2023-01-16T09:36:17;4.15;;;2.75;;
29838;SDS011;18669;53.356;-1.464;2023-01-16T09:38:52;12.23;;;3.13;;
29838;SDS011;18669;53.356;-1.464;2023-01-16T09:41:19;10.40;;;2.42;;
29838;SDS011;18669;53.356;-1.464;2023-01-16T09:44:06;5.20;;;2.55;;
29838;SDS011;18669;53.356;-1.464;2023-01-16T09:46:42;10.15;;;3.03;;
29838;SDS011;18669;53.356;-1.464;2023-01-16T09:51:58;4.05;;;2.63;;
29838;SDS011;18669;53.356;-1.464;2023-01-16T09:54:51;18.38;;;5.97;;
29838;SDS011;18669;53.356;-1.464;2023-01-16T09:57:44;12.50;;;6.07;;
29838;SDS011;18669;53.356;-1.464;2023-01-16T10:00:30;6.45;;;2.40;;
29838;SDS011;18669;53.356;-1.464;2023-01-16T10:03:00;6.68;;;2.70;;
29838;SDS011;18669;53.356;-1.464;2023-01-16T10:16:09;5.10;;;2.92;;
29838;SDS011;18669;53.356;-1.464;2023-01-16T10:23:54;7.88;;;4.50;;
29838;SDS011;18669;53.356;-1.464;2023-01-16T10:26:33;7.97;;;4.70;;
29838;SDS011;18669;53.356;-1.464;2023-01-16T10:34:36;6.68;;;5.53;;
29838;SDS011;18669;53.356;-1.464;2023-01-16T10:37:18;12.93;;;5.70;;
29838;SDS011;18669;53.356;-1.464;2023-01-16T10:39:45;8.13;;;5.97;;
29838;SDS011;18669;53.356;-1.464;2023-01-16T10:42:17;6.55;;;5.40;;
29838;SDS011;18669;53.356;-1.464;2023-01-16T10:48:20;9.73;;;5.95;;
29838;SDS011;18669;53.356;-1.464;2023-01-16T10:51:06;9.93;;;5.85;;
29838;SDS011;18669;53.356;-1.464;2023-01-16T10:53:34;7.65;;;5.30;;
29838;SDS011;18669;53.356;-1.464;2023-01-16T10:56:02;8.80;;;5.78;;
29838;SDS011;18669;53.356;-1.464;2023-01-16T10:58:29;7.93;;;5.63;;
29838;SDS011;18669;53.356;-1.464;2023-01-16T11:01:05;8.23;;;5.70;;
29838;SDS011;18669;53.356;-1.464;2023-01-16T11:03:37;7.70;;;5.78;;
29838;SDS011;18669;53.356;-1.464;2023-01-16T11:06:21;5.93;;;4.80;;
29838;SDS011;18669;53.356;-1.464;2023-01-16T11:08:54;4.60;;;3.95;;
29838;SDS011;18669;53.356;-1.464;2023-01-16T11:11:28;3.95;;;2.90;;
29838;SDS011;18669;53.356;-1.464;2023-01-16T11:14:17;2.75;;;2.47;;
29838;SDS011;18669;53.356;-1.464;2023-01-16T11:17:38;3.30;;;2.15;;
29838;SDS011;18669;53.356;-1.464;2023-01-16T11:23:16;5.22;;;2.30;;
29838;SDS011;18669;53.356;-1.464;2023-01-16T11:25:42;3.97;;;2.05;;
29838;SDS011;18669;53.356;-1.464;2023-01-16T11:28:12;2.17;;;2.00;;
29838;SDS011;18669;53.356;-1.464;2023-01-16T11:30:48;2.15;;;1.92;;
29838;SDS011;18669;53.356;-1.464;2023-01-16T11:33:20;4.47;;;3.95;;
29838;SDS011;18669;53.356;-1.464;2023-01-16T11:35:51;3.30;;;1.85;;
29838;SDS011;18669;53.356;-1.464;2023-01-16T11:38:20;1.98;;;1.70;;
29838;SDS011;18669;53.356;-1.464;2023-01-16T11:40:48;2.53;;;1.70;;
29838;SDS011;18669;53.356;-1.464;2023-01-16T11:43:21;1.92;;;1.42;;
29838;SDS011;18669;53.356;-1.464;2023-01-16T11:48:54;4.75;;;1.60;;
29838;SDS011;18669;53.356;-1.464;2023-01-16T11:51:24;3.30;;;1.98;;
29838;SDS011;18669;53.356;-1.464;2023-01-16T11:53:54;3.65;;;1.80;;
29838;SDS011;18669;53.356;-1.464;2023-01-16T11:56:42;1.42;;;1.17;;
29838;SDS011;18669;53.356;-1.464;2023-01-16T12:04:45;1.58;;;1.48;;
29838;SDS011;18669;53.356;-1.464;2023-01-16T12:07:41;3.80;;;1.20;;
29838;SDS011;18669;53.356;-1.464;2023-01-16T12:10:32;2.92;;;1.73;;
29838;SDS011;18669;53.356;-1.464;2023-01-16T12:13:10;1.88;;;1.35;;
29838;SDS011;18669;53.356;-1.464;2023-01-16T12:30:36;0.80;;;0.80;;
29838;SDS011;18669;53.356;-1.464;2023-01-16T12:33:45;1.90;;;1.05;;
29838;SDS011;18669;53.356;-1.464;2023-01-16T12:41:58;1.13;;;0.95;;
29838;SDS011;18669;53.356;-1.464;2023-01-16T12:45:38;0.70;;;0.70;;
29838;SDS011;18669;53.356;-1.464;2023-01-16T12:58:49;0.93;;;0.90;;
29838;SDS011;18669;53.356;-1.464;2023-01-16T13:01:21;4.07;;;0.80;;
29838;SDS011;18669;53.356;-1.464;2023-01-16T13:03:54;0.90;;;0.80;;
29838;SDS011;18669;53.356;-1.464;2023-01-16T13:06:36;3.05;;;2.30;;
29838;SDS011;18669;53.356;-1.464;2023-01-16T13:14:56;1.42;;;1.13;;
29838;SDS011;18669;53.356;-1.464;2023-01-16T13:17:32;1.60;;;1.08;;
29838;SDS011;18669;53.356;-1.464;2023-01-16T13:20:09;1.30;;;0.70;;
29838;SDS011;18669;53.356;-1.464;2023-01-16T13:22:41;1.42;;;0.63;;
29838;SDS011;18669;53.356;-1.464;2023-01-16T13:25:17;1.13;;;0.75;;
29838;SDS011;18669;53.356;-1.464;2023-01-16T13:27:47;3.47;;;0.75;;
29838;SDS011;18669;53.356;-1.464;2023-01-16T13:30:19;4.20;;;2.97;;
29838;SDS011;18669;53.356;-1.464;2023-01-16T13:35:28;1.63;;;1.40;;
29838;SDS011;18669;53.356;-1.464;2023-01-16T13:38:13;3.20;;;2.13;;
29838;SDS011;18669;53.356;-1.464;2023-01-16T13:43:45;1.77;;;1.23;;
29838;SDS011;18669;53.356;-1.464;2023-01-16T13:46:38;1.75;;;1.02;;
29838;SDS011;18669;53.356;-1.464;2023-01-16T13:49:05;1.10;;;1.00;;
29838;SDS011;18669;53.356;-1.464;2023-01-16T13:51:40;3.00;;;1.65;;
29838;SDS011;18669;53.356;-1.464;2023-01-16T13:54:13;3.03;;;1.10;;
29838;SDS011;18669;53.356;-1.464;2023-01-16T13:56:54;1.63;;;1.20;;
29838;SDS011;18669;53.356;-1.464;2023-01-16T13:59:48;1.92;;;0.85;;
29838;SDS011;18669;53.356;-1.464;2023-01-16T14:10:45;1.55;;;1.27;;
29838;SDS011;18669;53.356;-1.464;2023-01-16T14:13:32;1.42;;;1.10;;
29838;SDS011;18669;53.356;-1.464;2023-01-16T14:21:39;0.85;;;0.75;;
29838;SDS011;18669;53.356;-1.464;2023-01-16T14:24:13;1.77;;;1.05;;
29838;SDS011;18669;53.356;-1.464;2023-01-16T14:32:02;2.90;;;1.25;;
29838;SDS011;18669;53.356;-1.464;2023-01-16T14:34:38;1.15;;;1.00;;
29838;SDS011;18669;53.356;-1.464;2023-01-16T14:37:19;0.82;;;0.82;;
29838;SDS011;18669;53.356;-1.464;2023-01-16T14:40:28;1.73;;;0.80;;
29838;SDS011;18669;53.356;-1.464;2023-01-16T14:42:35;0.88;;;0.70;;
29838;SDS011;18669;53.356;-1.464;2023-01-16T14:53:56;0.77;;;0.70;;
29838;SDS011;18669;53.356;-1.464;2023-01-16T14:56:42;0.70;;;0.60;;
29838;SDS011;18669;53.356;-1.464;2023-01-16T14:59:20;1.27;;;0.85;;
29838;SDS011;18669;53.356;-1.464;2023-01-16T15:01:57;1.48;;;1.00;;
29838;SDS011;18669;53.356;-1.464;2023-01-16T15:07:43;1.70;;;0.85;;
29838;SDS011;18669;53.356;-1.464;2023-01-16T15:10:17;1.60;;;1.30;;
29838;SDS011;18669;53.356;-1.464;2023-01-16T15:12:47;1.25;;;1.15;;
29838;SDS011;18669;53.356;-1.464;2023-01-16T15:17:52;10.70;;;5.13;;
29838;SDS011;18669;53.356;-1.464;2023-01-16T15:20:38;6.53;;;4.15;;
29838;SDS011;18669;53.356;-1.464;2023-01-16T15:28:50;1.83;;;1.40;;
29838;SDS011;18669;53.356;-1.464;2023-01-16T15:31:58;1.40;;;1.20;;
29838;SDS011;18669;53.356;-1.464;2023-01-16T15:34:28;1.70;;;0.77;;
29838;SDS011;18669;53.356;-1.464;2023-01-16T15:36:56;0.63;;;0.60;;
29838;SDS011;18669;53.356;-1.464;2023-01-16T15:42:18;1.50;;;1.20;;
29838;SDS011;18669;53.356;-1.464;2023-01-16T15:45:28;1.90;;;1.20;;
29838;SDS011;18669;53.356;-1.464;2023-01-16T15:51:09;2.10;;;1.40;;
29838;SDS011;18669;53.356;-1.464;2023-01-16T15:53:42;2.05;;;1.20;;
29838;SDS011;18669;53.356;-1.464;2023-01-16T15:56:24;2.85;;;1.40;;
29838;SDS011;18669;53.356;-1.464;2023-01-16T15:58:58;2.75;;;1.20;;
29838;SDS011;18669;53.356;-1.464;2023-01-16T16:01:33;4.78;;;1.50;;
29838;SDS011;18669;53.356;-1.464;2023-01-16T16:04:01;3.17;;;1.45;;
29838;SDS011;18669;53.356;-1.464;2023-01-16T16:06:29;3.00;;;1.73;;
29838;SDS011;18669;53.356;-1.464;2023-01-16T16:08:58;3.53;;;1.45;;
29838;SDS011;18669;53.356;-1.464;2023-01-16T16:11:26;2.03;;;1.17;;
29838;SDS011;18669;53.356;-1.464;2023-01-16T16:14:29;2.47;;;1.25;;
29838;SDS011;18669;53.356;-1.464;2023-01-16T16:17:34;2.30;;;1.80;;
29838;SDS011;18669;53.356;-1.464;2023-01-16T16:23:21;2.35;;;1.75;;
29838;SDS011;18669;53.356;-1.464;2023-01-16T16:25:53;3.85;;;2.45;;
29838;SDS011;18669;53.356;-1.464;2023-01-16T16:31:02;5.72;;;2.53;;
29838;SDS011;18669;53.356;-1.464;2023-01-16T16:33:52;3.70;;;2.35;;
29838;SDS011;18669;53.356;-1.464;2023-01-16T16:36:19;4.88;;;2.38;;
29838;SDS011;18669;53.356;-1.464;2023-01-16T16:38:49;5.13;;;1.92;;
29838;SDS011;18669;53.356;-1.464;2023-01-16T16:51:36;3.63;;;1.80;;
29838;SDS011;18669;53.356;-1.464;2023-01-16T16:54:09;3.03;;;1.90;;
29838;SDS011;18669;53.356;-1.464;2023-01-16T16:56:51;3.45;;;1.77;;
29838;SDS011;18669;53.356;-1.464;2023-01-16T16:59:24;3.97;;;2.58;;
29838;SDS011;18669;53.356;-1.464;2023-01-16T17:01:55;2.47;;;1.92;;
29838;SDS011;18669;53.356;-1.464;2023-01-16T17:04:26;5.15;;;3.03;;
29838;SDS011;18669;53.356;-1.464;2023-01-16T17:06:52;8.02;;;2.72;;
29838;SDS011;18669;53.356;-1.464;2023-01-16T17:09:18;4.20;;;2.20;;
29838;SDS011;18669;53.356;-1.464;2023-01-16T17:11:45;4.40;;;2.33;;
29838;SDS011;18669;53.356;-1.464;2023-01-16T17:14:11;5.22;;;2.25;;
29838;SDS011;18669;53.356;-1.464;2023-01-16T17:16:38;3.88;;;2.40;;
29838;SDS011;18669;53.356;-1.464;2023-01-16T17:19:07;3.10;;;1.85;;
29838;SDS011;18669;53.356;-1.464;2023-01-16T17:21:42;3.92;;;2.38;;
29838;SDS011;18669;53.356;-1.464;2023-01-16T17:24:15;6.40;;;2.17;;
29838;SDS011;18669;53.356;-1.464;2023-01-16T17:26:44;3.78;;;1.88;;
29838;SDS011;18669;53.356;-1.464;2023-01-16T17:31:39;3.13;;;1.73;;
29838;SDS011;18669;53.356;-1.464;2023-01-16T17:34:11;5.63;;;1.50;;
29838;SDS011;18669;53.356;-1.464;2023-01-16T17:36:40;4.05;;;2.10;;
29838;SDS011;18669;53.356;-1.464;2023-01-16T17:41:34;3.30;;;1.95;;
29838;SDS011;18669;53.356;-1.464;2023-01-16T17:44:13;3.00;;;1.83;;
29838;SDS011;18669;53.356;-1.464;2023-01-16T17:47:00;3.28;;;1.90;;
29838;SDS011;18669;53.356;-1.464;2023-01-16T17:49:28;17.13;;;8.93;;
29838;SDS011;18669;53.356;-1.464;2023-01-16T17:51:54;20.58;;;8.75;;
29838;SDS011;18669;53.356;-1.464;2023-01-16T17:54:20;8.52;;;4.50;;
29838;SDS011;18669;53.356;-1.464;2023-01-16T17:57:09;3.83;;;2.40;;
29838;SDS011;18669;53.356;-1.464;2023-01-16T17:59:35;4.78;;;3.08;;
29838;SDS011;18669;53.356;-1.464;2023-01-16T18:02:02;7.05;;;3.92;;
29838;SDS011;18669;53.356;-1.464;2023-01-16T18:04:28;4.28;;;2.40;;
29838;SDS011;18669;53.356;-1.464;2023-01-16T18:06:58;5.45;;;2.63;;
29838;SDS011;18669;53.356;-1.464;2023-01-16T18:09:24;9.30;;;5.18;;
29838;SDS011;18669;53.356;-1.464;2023-01-16T18:11:51;4.82;;;2.88;;
29838;SDS011;18669;53.356;-1.464;2023-01-16T18:14:36;5.95;;;3.85;;
29838;SDS011;18669;53.356;-1.464;2023-01-16T18:17:20;5.50;;;2.28;;
29838;SDS011;18669;53.356;-1.464;2023-01-16T18:19:47;2.70;;;2.08;;
29838;SDS011;18669;53.356;-1.464;2023-01-16T18:22:14;4.22;;;2.17;;
29838;SDS011;18669;53.356;-1.464;2023-01-16T18:24:41;4.15;;;2.00;;
29838;SDS011;18669;53.356;-1.464;2023-01-16T18:27:12;4.05;;;2.28;;
29838;SDS011;18669;53.356;-1.464;2023-01-16T18:29:41;4.63;;;2.88;;